sensor_id;sensor_type;location;lat;lon;timestamp;pressure;altitude;pressure_sealevel;temperature;humidity
44140;BME280;29803;51.048;4.686;2022-10-18T00:01:24;102518.84;;;14.75;100.00
44140;BME280;29803;51.048;4.686;2022-10-18T00:03:54;102520.69;;;14.74;100.00
44140;BME280;29803;51.048;4.686;2022-10-18T00:06:25;102522.72;;;14.72;100.00
44140;BME280;29803;51.048;4.686;2022-10-18T00:08:55;102521.16;;;14.70;100.00
44140;BME280;29803;51.048;4.686;2022-10-18T00:11:26;102525.72;;;14.69;100.00
44140;BME280;29803;51.048;4.686;2022-10-18T00:13:57;102524.19;;;14.67;100.00
44140;BME280;29803;51.048;4.686;2022-10-18T00:16:27;102522.44;;;14.66;100.00
44140;BME280;29803;51.048;4.686;2022-10-18T00:18:58;102522.44;;;14.66;100.00
44140;BME280;29803;51.048;4.686;2022-10-18T00:21:28;102534.13;;;14.66;100.00
44140;BME280;29803;51.048;4.686;2022-10-18T00:23:59;102537.81;;;14.65;100.00
44140;BME280;29803;51.048;4.686;2022-10-18T00:26:30;102539.81;;;14.63;100.00
44140;BME280;29803;51.048;4.686;2022-10-18T00:29:03;102529.03;;;14.63;100.00
44140;BME280;29803;51.048;4.686;2022-10-18T00:31:36;102542.25;;;14.66;100.00
44140;BME280;29803;51.048;4.686;2022-10-18T00:34:10;102539.22;;;14.69;100.00
44140;BME280;29803;51.048;4.686;2022-10-18T00:36:42;102533.34;;;14.74;100.00
44140;BME280;29803;51.048;4.686;2022-10-18T00:39:17;102545.56;;;14.78;100.00
44140;BME280;29803;51.048;4.686;2022-10-18T00:41:49;102537.84;;;14.83;100.00
44140;BME280;29803;51.048;4.686;2022-10-18T00:46:51;102531.75;;;14.81;100.00
44140;BME280;29803;51.048;4.686;2022-10-18T00:49:30;102531.88;;;14.80;100.00
44140;BME280;29803;51.048;4.686;2022-10-18T00:52:05;102527.50;;;14.79;100.00
44140;BME280;29803;51.048;4.686;2022-10-18T00:54:38;102530.38;;;14.77;100.00
44140;BME280;29803;51.048;4.686;2022-10-18T00:57:12;102535.06;;;14.75;100.00
44140;BME280;29803;51.048;4.686;2022-10-18T00:59:43;102532.34;;;14.75;100.00
44140;BME280;29803;51.048;4.686;2022-10-18T01:02:15;102538.75;;;14.74;100.00
44140;BME280;29803;51.048;4.686;2022-10-18T01:04:48;102536.06;;;14.74;100.00
44140;BME280;29803;51.048;4.686;2022-10-18T01:10:19;102531.66;;;14.73;100.00
44140;BME280;29803;51.048;4.686;2022-10-18T01:16:38;102541.91;;;14.69;100.00
44140;BME280;29803;51.048;4.686;2022-10-18T01:19:20;102528.72;;;14.66;100.00
44140;BME280;29803;51.048;4.686;2022-10-18T01:22:03;102524.47;;;14.64;100.00
44140;BME280;29803;51.048;4.686;2022-10-18T01:27:43;102541.13;;;14.59;100.00
44140;BME280;29803;51.048;4.686;2022-10-18T01:30:41;102547.53;;;14.58;100.00
44140;BME280;29803;51.048;4.686;2022-10-18T01:35:52;102543.28;;;14.56;100.00
44140;BME280;29803;51.048;4.686;2022-10-18T01:38:25;102537.19;;;14.54;100.00
44140;BME280;29803;51.048;4.686;2022-10-18T01:40:57;102538.19;;;14.53;100.00
44140;BME280;29803;51.048;4.686;2022-10-18T01:43:29;102540.88;;;14.53;100.00
44140;BME280;29803;51.048;4.686;2022-10-18T01:46:02;102533.78;;;14.52;100.00
44140;BME280;29803;51.048;4.686;2022-10-18T01:48:34;102544.59;;;14.52;100.00
44140;BME280;29803;51.048;4.686;2022-10-18T01:51:07;102543.03;;;14.49;100.00
44140;BME280;29803;51.048;4.686;2022-10-18T01:53:42;102538.34;;;14.51;100.00
44140;BME280;29803;51.048;4.686;2022-10-18T01:56:21;102540.88;;;14.53;100.00
44140;BME280;29803;51.048;4.686;2022-10-18T01:59:06;102545.28;;;14.54;100.00
44140;BME280;29803;51.048;4.686;2022-10-18T02:05:33;102549.00;;;14.53;100.00
44140;BME280;29803;51.048;4.686;2022-10-18T02:08:16;102540.03;;;14.52;100.00
44140;BME280;29803;51.048;4.686;2022-10-18T02:11:00;102546.28;;;14.53;100.00
44140;BME280;29803;51.048;4.686;2022-10-18T02:13:40;102544.59;;;14.52;100.00
44140;BME280;29803;51.048;4.686;2022-10-18T02:16:23;102544.72;;;14.50;100.00
44140;BME280;29803;51.048;4.686;2022-10-18T02:18:57;102540.63;;;14.46;100.00
44140;BME280;29803;51.048;4.686;2022-10-18T02:21:31;102556.81;;;14.46;100.00
44140;BME280;29803;51.048;4.686;2022-10-18T02:24:03;102543.44;;;14.44;100.00
44140;BME280;29803;51.048;4.686;2022-10-18T02:26:34;102549.00;;;14.43;100.00
44140;BME280;29803;51.048;4.686;2022-10-18T02:29:05;102548.31;;;14.41;100.00
44140;BME280;29803;51.048;4.686;2022-10-18T02:31:42;102544.91;;;14.39;100.00
44140;BME280;29803;51.048;4.686;2022-10-18T02:34:38;102555.03;;;14.37;100.00
44140;BME280;29803;51.048;4.686;2022-10-18T02:37:10;102557.84;;;14.35;100.00
44140;BME280;29803;51.048;4.686;2022-10-18T02:39:45;102554.88;;;14.38;100.00
44140;BME280;29803;51.048;4.686;2022-10-18T02:42:17;102557.56;;;14.38;100.00
44140;BME280;29803;51.048;4.686;2022-10-18T02:44:47;102550.47;;;14.37;100.00
44140;BME280;29803;51.048;4.686;2022-10-18T02:47:18;102546.91;;;14.37;100.00
44140;BME280;29803;51.048;4.686;2022-10-18T02:49:48;102550.63;;;14.36;100.00
44140;BME280;29803;51.048;4.686;2022-10-18T02:52:19;102548.06;;;14.34;100.00
44140;BME280;29803;51.048;4.686;2022-10-18T02:54:49;102549.91;;;14.34;100.00
44140;BME280;29803;51.048;4.686;2022-10-18T02:57:20;102556.31;;;14.33;100.00
44140;BME280;29803;51.048;4.686;2022-10-18T02:59:50;102558.72;;;14.36;100.00
44140;BME280;29803;51.048;4.686;2022-10-18T03:02:21;102567.50;;;14.38;100.00
44140;BME280;29803;51.048;4.686;2022-10-18T03:04:51;102569.22;;;14.39;100.00
44140;BME280;29803;51.048;4.686;2022-10-18T03:07:22;102569.22;;;14.39;100.00
44140;BME280;29803;51.048;4.686;2022-10-18T03:09:52;102570.06;;;14.39;100.00
44140;BME280;29803;51.048;4.686;2022-10-18T03:12:23;102562.97;;;14.38;100.00
44140;BME280;29803;51.048;4.686;2022-10-18T03:14:53;102562.13;;;14.38;100.00
44140;BME280;29803;51.048;4.686;2022-10-18T03:17:23;102563.13;;;14.37;100.00
44140;BME280;29803;51.048;4.686;2022-10-18T03:19:54;102555.16;;;14.35;100.00
44140;BME280;29803;51.048;4.686;2022-10-18T03:22:24;102560.72;;;14.34;100.00
44140;BME280;29803;51.048;4.686;2022-10-18T03:24:57;102565.94;;;14.35;100.00
44140;BME280;29803;51.048;4.686;2022-10-18T03:27:27;102564.41;;;14.33;100.00
44140;BME280;29803;51.048;4.686;2022-10-18T03:29:57;102561.00;;;14.31;100.00
44140;BME280;29803;51.048;4.686;2022-10-18T03:32:29;102556.75;;;14.28;100.00
44140;BME280;29803;51.048;4.686;2022-10-18T03:34:59;102559.63;;;14.27;100.00
44140;BME280;29803;51.048;4.686;2022-10-18T03:37:29;102564.16;;;14.26;100.00
44140;BME280;29803;51.048;4.686;2022-10-18T03:40:00;102566.88;;;14.26;100.00
44140;BME280;29803;51.048;4.686;2022-10-18T03:42:30;102567.56;;;14.28;100.00
44140;BME280;29803;51.048;4.686;2022-10-18T03:45:01;102570.25;;;14.28;100.00
44140;BME280;29803;51.048;4.686;2022-10-18T03:47:31;102571.09;;;14.29;100.00
44140;BME280;29803;51.048;4.686;2022-10-18T03:50:03;102564.69;;;14.30;100.00
44140;BME280;29803;51.048;4.686;2022-10-18T03:52:33;102574.81;;;14.28;100.00
44140;BME280;29803;51.048;4.686;2022-10-18T03:55:04;102581.22;;;14.27;100.00
44140;BME280;29803;51.048;4.686;2022-10-18T03:57:34;102573.97;;;14.27;100.00
44140;BME280;29803;51.048;4.686;2022-10-18T04:00:06;102573.81;;;14.29;100.00
44140;BME280;29803;51.048;4.686;2022-10-18T04:02:36;102564.84;;;14.28;100.00
44140;BME280;29803;51.048;4.686;2022-10-18T04:05:07;102567.84;;;14.25;100.00
44140;BME280;29803;51.048;4.686;2022-10-18T04:07:38;102575.25;;;14.23;100.00
44140;BME280;29803;51.048;4.686;2022-10-18T04:10:09;102570.25;;;14.28;100.00
44140;BME280;29803;51.048;4.686;2022-10-18T04:12:39;102575.50;;;14.30;100.00
44140;BME280;29803;51.048;4.686;2022-10-18T04:15:10;102583.59;;;14.30;100.00
44140;BME280;29803;51.048;4.686;2022-10-18T04:17:40;102591.69;;;14.30;100.00
44140;BME280;29803;51.048;4.686;2022-10-18T04:20:11;102588.88;;;14.31;100.00
44140;BME280;29803;51.048;4.686;2022-10-18T04:22:42;102589.72;;;14.32;100.00
44140;BME280;29803;51.048;4.686;2022-10-18T04:25:12;102592.69;;;14.29;100.00
44140;BME280;29803;51.048;4.686;2022-10-18T04:27:43;102590.16;;;14.27;100.00
44140;BME280;29803;51.048;4.686;2022-10-18T04:30:14;102588.47;;;14.26;100.00
44140;BME280;29803;51.048;4.686;2022-10-18T04:32:44;102590.16;;;14.27;100.00
44140;BME280;29803;51.048;4.686;2022-10-18T04:35:15;102595.56;;;14.27;100.00
44140;BME280;29803;51.048;4.686;2022-10-18T04:37:45;102599.09;;;14.28;100.00
44140;BME280;29803;51.048;4.686;2022-10-18T04:40:16;102596.25;;;14.29;100.00
44140;BME280;29803;51.048;4.686;2022-10-18T04:42:46;102595.13;;;14.32;100.00
44140;BME280;29803;51.048;4.686;2022-10-18T04:45:17;102593.94;;;14.34;100.00
44140;BME280;29803;51.048;4.686;2022-10-18T04:47:47;102592.94;;;14.35;100.00
44140;BME280;29803;51.048;4.686;2022-10-18T04:50:17;102600.50;;;14.32;100.00
44140;BME280;29803;51.048;4.686;2022-10-18T04:52:48;102598.78;;;14.31;100.00
44140;BME280;29803;51.048;4.686;2022-10-18T04:55:19;102598.78;;;14.31;100.00
44140;BME280;29803;51.048;4.686;2022-10-18T04:57:49;102604.19;;;14.31;100.00
44140;BME280;29803;51.048;4.686;2022-10-18T05:00:20;102612.00;;;14.34;100.00
44140;BME280;29803;51.048;4.686;2022-10-18T05:02:57;102609.47;;;14.32;100.00
44140;BME280;29803;51.048;4.686;2022-10-18T05:05:28;102613.84;;;14.33;100.00
44140;BME280;29803;51.048;4.686;2022-10-18T05:07:58;102604.06;;;14.32;100.00
44140;BME280;29803;51.048;4.686;2022-10-18T05:10:29;102604.75;;;14.34;100.00
44140;BME280;29803;51.048;4.686;2022-10-18T05:12:59;102609.47;;;14.32;100.00
44140;BME280;29803;51.048;4.686;2022-10-18T05:15:29;102612.16;;;14.32;100.00
44140;BME280;29803;51.048;4.686;2022-10-18T05:18:00;102612.00;;;14.34;100.00
44140;BME280;29803;51.048;4.686;2022-10-18T05:20:30;102611.00;;;14.35;100.00
44140;BME280;29803;51.048;4.686;2022-10-18T05:23:01;102611.31;;;14.32;100.00
44140;BME280;29803;51.048;4.686;2022-10-18T05:25:31;102600.22;;;14.25;100.00
44140;BME280;29803;51.048;4.686;2022-10-18T05:28:02;102602.53;;;14.20;100.00
44140;BME280;29803;51.048;4.686;2022-10-18T05:30:33;102603.13;;;14.14;100.00
44140;BME280;29803;51.048;4.686;2022-10-18T05:33:03;102599.31;;;14.07;100.00
44140;BME280;29803;51.048;4.686;2022-10-18T05:35:34;102598.06;;;14.01;100.00
44140;BME280;29803;51.048;4.686;2022-10-18T05:38:05;102601.19;;;13.96;100.00
44140;BME280;29803;51.048;4.686;2022-10-18T05:40:39;102602.63;;;13.91;100.00
44140;BME280;29803;51.048;4.686;2022-10-18T05:43:09;102606.47;;;13.88;100.00
44140;BME280;29803;51.048;4.686;2022-10-18T05:45:46;102595.09;;;13.85;100.00
44140;BME280;29803;51.048;4.686;2022-10-18T05:48:17;102585.63;;;13.81;100.00
44140;BME280;29803;51.048;4.686;2022-10-18T05:50:47;102592.41;;;13.75;100.00
44140;BME280;29803;51.048;4.686;2022-10-18T05:53:18;102588.19;;;13.72;100.00
44140;BME280;29803;51.048;4.686;2022-10-18T05:55:48;102596.00;;;13.66;100.00
44140;BME280;29803;51.048;4.686;2022-10-18T05:58:19;102590.03;;;13.62;100.00
44140;BME280;29803;51.048;4.686;2022-10-18T06:00:49;102605.50;;;13.60;100.00
44140;BME280;29803;51.048;4.686;2022-10-18T06:03:21;102607.06;;;13.63;100.00
44140;BME280;29803;51.048;4.686;2022-10-18T06:05:51;102609.75;;;13.63;100.00
44140;BME280;29803;51.048;4.686;2022-10-18T06:08:21;102609.06;;;13.61;100.00
44140;BME280;29803;51.048;4.686;2022-10-18T06:10:52;102606.38;;;13.61;100.00
44140;BME280;29803;51.048;4.686;2022-10-18T06:13:23;102604.53;;;13.61;100.00
44140;BME280;29803;51.048;4.686;2022-10-18T06:15:56;102602.09;;;13.58;100.00
44140;BME280;29803;51.048;4.686;2022-10-18T06:18:27;102607.50;;;13.58;100.00
44140;BME280;29803;51.048;4.686;2022-10-18T06:20:58;102611.34;;;13.56;100.00
44140;BME280;29803;51.048;4.686;2022-10-18T06:23:29;102616.59;;;13.57;100.00
44140;BME280;29803;51.048;4.686;2022-10-18T06:26:01;102617.44;;;13.58;100.00
44140;BME280;29803;51.048;4.686;2022-10-18T06:28:35;102620.97;;;13.58;100.00
44140;BME280;29803;51.048;4.686;2022-10-18T06:31:06;102626.53;;;13.57;100.00
44140;BME280;29803;51.048;4.686;2022-10-18T06:33:36;102625.69;;;13.56;100.00
44140;BME280;29803;51.048;4.686;2022-10-18T06:36:11;102626.38;;;13.58;100.00
44140;BME280;29803;51.048;4.686;2022-10-18T06:38:42;102631.63;;;13.60;100.00
44140;BME280;29803;51.048;4.686;2022-10-18T06:41:13;102639.69;;;13.60;100.00
44140;BME280;29803;51.048;4.686;2022-10-18T06:43:48;102645.25;;;13.58;100.00
44140;BME280;29803;51.048;4.686;2022-10-18T06:46:18;102650.63;;;13.58;100.00
44140;BME280;29803;51.048;4.686;2022-10-18T06:48:49;102653.19;;;13.60;100.00
44140;BME280;29803;51.048;4.686;2022-10-18T06:51:19;102653.06;;;13.61;100.00
44140;BME280;29803;51.048;4.686;2022-10-18T06:53:50;102662.13;;;13.60;100.00
44140;BME280;29803;51.048;4.686;2022-10-18T06:56:20;102654.91;;;13.61;100.00
44140;BME280;29803;51.048;4.686;2022-10-18T06:58:51;102659.31;;;13.62;100.00
44140;BME280;29803;51.048;4.686;2022-10-18T07:01:21;102667.41;;;13.62;100.00
44140;BME280;29803;51.048;4.686;2022-10-18T07:03:53;102667.41;;;13.62;100.00
44140;BME280;29803;51.048;4.686;2022-10-18T07:06:23;102667.94;;;13.65;100.00
44140;BME280;29803;51.048;4.686;2022-10-18T07:08:54;102678.31;;;13.70;100.00
44140;BME280;29803;51.048;4.686;2022-10-18T07:11:26;102678.72;;;13.75;100.00
44140;BME280;29803;51.048;4.686;2022-10-18T07:14:01;102686.41;;;13.80;100.00
44140;BME280;29803;51.048;4.686;2022-10-18T07:16:33;102683.28;;;13.84;100.00
44140;BME280;29803;51.048;4.686;2022-10-18T07:19:04;102696.34;;;13.89;100.00
44140;BME280;29803;51.048;4.686;2022-10-18T07:21:34;102694.22;;;13.92;100.00
44140;BME280;29803;51.048;4.686;2022-10-18T07:24:05;102695.31;;;13.99;100.00
44140;BME280;29803;51.048;4.686;2022-10-18T07:26:36;102698.44;;;14.05;100.00
44140;BME280;29803;51.048;4.686;2022-10-18T07:29:08;102697.91;;;14.11;100.00
44140;BME280;29803;51.048;4.686;2022-10-18T07:31:39;102695.47;;;14.17;100.00
44140;BME280;29803;51.048;4.686;2022-10-18T07:34:11;102708.53;;;14.22;100.00
44140;BME280;29803;51.048;4.686;2022-10-18T07:36:42;102707.94;;;14.28;100.00
44140;BME280;29803;51.048;4.686;2022-10-18T07:39:12;102712.47;;;14.37;100.00
44140;BME280;29803;51.048;4.686;2022-10-18T07:41:43;102710.47;;;14.49;100.00
44140;BME280;29803;51.048;4.686;2022-10-18T07:44:13;102717.78;;;14.76;100.00
44140;BME280;29803;51.048;4.686;2022-10-18T07:46:44;102723.44;;;15.10;100.00
44140;BME280;29803;51.048;4.686;2022-10-18T07:49:14;102716.84;;;15.68;100.00
44140;BME280;29803;51.048;4.686;2022-10-18T07:51:45;102720.28;;;16.40;100.00
44140;BME280;29803;51.048;4.686;2022-10-18T07:54:15;102725.72;;;17.00;100.00
44140;BME280;29803;51.048;4.686;2022-10-18T07:56:45;102731.38;;;17.81;100.00
44140;BME280;29803;51.048;4.686;2022-10-18T07:59:16;102729.38;;;18.08;100.00
44140;BME280;29803;51.048;4.686;2022-10-18T08:01:46;102730.22;;;18.00;100.00
44140;BME280;29803;51.048;4.686;2022-10-18T08:04:17;102739.88;;;18.19;100.00
44140;BME280;29803;51.048;4.686;2022-10-18T08:06:47;102732.19;;;18.47;100.00
44140;BME280;29803;51.048;4.686;2022-10-18T08:09:18;102724.84;;;18.80;100.00
44140;BME280;29803;51.048;4.686;2022-10-18T08:11:48;102721.78;;;19.77;100.00
44140;BME280;29803;51.048;4.686;2022-10-18T08:14:18;102735.06;;;19.80;100.00
44140;BME280;29803;51.048;4.686;2022-10-18T08:16:49;102741.47;;;19.87;100.00
44140;BME280;29803;51.048;4.686;2022-10-18T08:19:19;102752.78;;;19.99;100.00
44140;BME280;29803;51.048;4.686;2022-10-18T08:21:50;102750.91;;;20.37;100.00
44140;BME280;29803;51.048;4.686;2022-10-18T08:24:20;102751.25;;;20.57;100.00
44140;BME280;29803;51.048;4.686;2022-10-18T08:26:51;102749.50;;;20.64;100.00
44140;BME280;29803;51.048;4.686;2022-10-18T08:29:21;102757.66;;;20.49;100.00
44140;BME280;29803;51.048;4.686;2022-10-18T08:31:52;102759.38;;;20.80;100.00
44140;BME280;29803;51.048;4.686;2022-10-18T08:34:22;102762.16;;;21.16;100.00
44140;BME280;29803;51.048;4.686;2022-10-18T08:36:52;102771.41;;;21.15;100.00
44140;BME280;29803;51.048;4.686;2022-10-18T08:39:23;102761.03;;;21.40;100.00
44140;BME280;29803;51.048;4.686;2022-10-18T08:44:49;102768.75;;;21.07;100.00
44140;BME280;29803;51.048;4.686;2022-10-18T08:47:26;102771.38;;;21.30;100.00
44140;BME280;29803;51.048;4.686;2022-10-18T08:50:20;102775.56;;;21.62;100.00
44140;BME280;29803;51.048;4.686;2022-10-18T08:55:28;102774.72;;;22.19;100.00
44140;BME280;29803;51.048;4.686;2022-10-18T08:58:00;102773.03;;;22.46;100.00
44140;BME280;29803;51.048;4.686;2022-10-18T09:00:33;102777.56;;;22.60;100.00
44140;BME280;29803;51.048;4.686;2022-10-18T09:03:47;102778.34;;;22.54;100.00
44140;BME280;29803;51.048;4.686;2022-10-18T09:07:13;102771.88;;;22.90;100.00
44140;BME280;29803;51.048;4.686;2022-10-18T09:09:57;102785.09;;;23.21;100.00
44140;BME280;29803;51.048;4.686;2022-10-18T09:12:26;102768.53;;;23.42;100.00
44140;BME280;29803;51.048;4.686;2022-10-18T09:23:56;102785.34;;;21.92;100.00
44140;BME280;29803;51.048;4.686;2022-10-18T09:26:39;102787.91;;;22.15;100.00
44140;BME280;29803;51.048;4.686;2022-10-18T09:34:49;102791.63;;;21.35;100.00
44140;BME280;29803;51.048;4.686;2022-10-18T09:37:23;102782.38;;;21.51;100.00
44140;BME280;29803;51.048;4.686;2022-10-18T09:40:02;102784.81;;;21.82;100.00
44140;BME280;29803;51.048;4.686;2022-10-18T09:42:38;102786.38;;;21.91;100.00
44140;BME280;29803;51.048;4.686;2022-10-18T09:45:34;102804.28;;;21.94;100.00
44140;BME280;29803;51.048;4.686;2022-10-18T09:51:03;102802.47;;;22.01;100.00
44140;BME280;29803;51.048;4.686;2022-10-18T09:53:49;102814.25;;;22.44;100.00
44140;BME280;29803;51.048;4.686;2022-10-18T09:56:24;102815.63;;;22.62;100.00
44140;BME280;29803;51.048;4.686;2022-10-18T09:58:57;102812.56;;;22.71;100.00
44140;BME280;29803;51.048;4.686;2022-10-18T10:01:30;102798.97;;;22.57;100.00
44140;BME280;29803;51.048;4.686;2022-10-18T10:04:00;102808.53;;;22.39;100.00
44140;BME280;29803;51.048;4.686;2022-10-18T10:06:31;102812.28;;;21.95;100.00
44140;BME280;29803;51.048;4.686;2022-10-18T10:09:14;102807.56;;;21.68;100.00
44140;BME280;29803;51.048;4.686;2022-10-18T10:11:47;102800.84;;;21.49;100.00
44140;BME280;29803;51.048;4.686;2022-10-18T10:14:23;102804.59;;;21.33;100.00
44140;BME280;29803;51.048;4.686;2022-10-18T10:17:00;102796.81;;;21.15;100.00
44140;BME280;29803;51.048;4.686;2022-10-18T10:19:37;102801.50;;;20.92;100.00
44140;BME280;29803;51.048;4.686;2022-10-18T10:22:11;102796.97;;;20.69;100.00
44140;BME280;29803;51.048;4.686;2022-10-18T10:27:48;102790.19;;;20.65;100.00
44140;BME280;29803;51.048;4.686;2022-10-18T10:32:57;102801.69;;;20.76;100.00
44140;BME280;29803;51.048;4.686;2022-10-18T10:35:31;102796.47;;;20.51;100.00
44140;BME280;29803;51.048;4.686;2022-10-18T10:38:02;102799.88;;;20.30;100.00
44140;BME280;29803;51.048;4.686;2022-10-18T10:40:39;102802.91;;;20.12;100.00
44140;BME280;29803;51.048;4.686;2022-10-18T10:43:22;102797.63;;;20.11;100.00
44140;BME280;29803;51.048;4.686;2022-10-18T10:48:39;102808.03;;;20.30;100.00
44140;BME280;29803;51.048;4.686;2022-10-18T10:51:11;102807.78;;;20.40;100.00
44140;BME280;29803;51.048;4.686;2022-10-18T10:54:03;102818.78;;;20.55;100.00
44140;BME280;29803;51.048;4.686;2022-10-18T10:56:54;102815.41;;;20.82;100.00
44140;BME280;29803;51.048;4.686;2022-10-18T10:59:31;102809.78;;;20.69;100.00
44140;BME280;29803;51.048;4.686;2022-10-18T11:04:45;102818.03;;;20.76;100.00
44140;BME280;29803;51.048;4.686;2022-10-18T11:10:05;102807.13;;;20.61;100.00
44140;BME280;29803;51.048;4.686;2022-10-18T11:12:44;102809.03;;;20.75;100.00
44140;BME280;29803;51.048;4.686;2022-10-18T11:15:31;102812.31;;;20.85;100.00
44140;BME280;29803;51.048;4.686;2022-10-18T11:18:28;102814.59;;;20.97;100.00
44140;BME280;29803;51.048;4.686;2022-10-18T11:21:06;102804.78;;;21.02;100.00
44140;BME280;29803;51.048;4.686;2022-10-18T11:23:40;102808.56;;;21.01;100.00
44140;BME280;29803;51.048;4.686;2022-10-18T11:37:16;102790.38;;;21.08;100.00
44140;BME280;29803;51.048;4.686;2022-10-18T11:59:49;102783.53;;;21.12;100.00
44140;BME280;29803;51.048;4.686;2022-10-18T12:05:14;102783.22;;;21.22;100.00
44140;BME280;29803;51.048;4.686;2022-10-18T12:07:52;102778.91;;;21.42;100.00
44140;BME280;29803;51.048;4.686;2022-10-18T12:10:26;102771.94;;;21.25;100.00
44140;BME280;29803;51.048;4.686;2022-10-18T12:13:00;102777.22;;;21.12;100.00
44140;BME280;29803;51.048;4.686;2022-10-18T12:15:35;102770.81;;;21.19;100.00
44140;BME280;29803;51.048;4.686;2022-10-18T12:18:14;102771.50;;;21.58;100.00
44140;BME280;29803;51.048;4.686;2022-10-18T12:20:47;102776.91;;;21.51;100.00
44140;BME280;29803;51.048;4.686;2022-10-18T12:26:12;102777.69;;;21.15;100.00
44140;BME280;29803;51.048;4.686;2022-10-18T12:31:30;102763.75;;;21.25;100.00
44140;BME280;29803;51.048;4.686;2022-10-18T12:39:31;102773.50;;;21.64;100.00
44140;BME280;29803;51.048;4.686;2022-10-18T12:42:02;102759.47;;;21.52;100.00
44140;BME280;29803;51.048;4.686;2022-10-18T12:44:34;102766.97;;;21.29;100.00
44140;BME280;29803;51.048;4.686;2022-10-18T12:47:05;102774.41;;;21.20;100.00
44140;BME280;29803;51.048;4.686;2022-10-18T12:49:37;102770.34;;;21.16;100.00
44140;BME280;29803;51.048;4.686;2022-10-18T12:52:20;102755.38;;;21.27;100.00
44140;BME280;29803;51.048;4.686;2022-10-18T13:17:22;102744.69;;;20.95;100.00
44140;BME280;29803;51.048;4.686;2022-10-18T13:20:10;102740.81;;;21.05;100.00
44140;BME280;29803;51.048;4.686;2022-10-18T13:25:47;102747.13;;;21.05;100.00
44140;BME280;29803;51.048;4.686;2022-10-18T13:30:56;102743.38;;;20.91;100.00
44140;BME280;29803;51.048;4.686;2022-10-18T13:33:39;102740.72;;;20.83;100.00
44140;BME280;29803;51.048;4.686;2022-10-18T13:44:34;102741.97;;;20.95;100.00
44140;BME280;29803;51.048;4.686;2022-10-18T13:47:13;102736.22;;;20.90;100.00
44140;BME280;29803;51.048;4.686;2022-10-18T13:50:03;102742.31;;;20.78;100.00
44140;BME280;29803;51.048;4.686;2022-10-18T13:55:58;102740.19;;;20.58;100.00
44140;BME280;29803;51.048;4.686;2022-10-18T13:58:42;102743.47;;;20.54;100.00
44140;BME280;29803;51.048;4.686;2022-10-18T14:01:38;102750.16;;;20.28;100.00
44140;BME280;29803;51.048;4.686;2022-10-18T14:07:04;102744.19;;;20.62;100.00
44140;BME280;29803;51.048;4.686;2022-10-18T14:09:43;102746.28;;;20.60;100.00
44140;BME280;29803;51.048;4.686;2022-10-18T14:12:34;102751.53;;;20.47;100.00
44140;BME280;29803;51.048;4.686;2022-10-18T14:15:26;102752.25;;;20.41;100.00
44140;BME280;29803;51.048;4.686;2022-10-18T14:18:04;102751.53;;;20.47;100.00
44140;BME280;29803;51.048;4.686;2022-10-18T14:20:37;102756.84;;;20.40;100.00
44140;BME280;29803;51.048;4.686;2022-10-18T14:23:15;102759.88;;;20.46;100.00
44140;BME280;29803;51.048;4.686;2022-10-18T14:25:47;102754.47;;;20.37;100.00
44140;BME280;29803;51.048;4.686;2022-10-18T14:28:20;102749.47;;;20.26;100.00
44140;BME280;29803;51.048;4.686;2022-10-18T14:33:40;102754.75;;;20.28;100.00
44140;BME280;29803;51.048;4.686;2022-10-18T14:36:22;102756.25;;;20.30;100.00
44140;BME280;29803;51.048;4.686;2022-10-18T14:39:02;102755.91;;;20.33;100.00
44140;BME280;29803;51.048;4.686;2022-10-18T14:41:35;102756.47;;;20.29;100.00
44140;BME280;29803;51.048;4.686;2022-10-18T14:46:49;102748.50;;;20.04;100.00
44140;BME280;29803;51.048;4.686;2022-10-18T14:49:20;102744.97;;;19.96;100.00
44140;BME280;29803;51.048;4.686;2022-10-18T14:51:53;102735.13;;;19.95;100.00
44140;BME280;29803;51.048;4.686;2022-10-18T14:54:32;102736.50;;;19.90;100.00
44140;BME280;29803;51.048;4.686;2022-10-18T14:57:06;102740.44;;;19.88;100.00
44140;BME280;29803;51.048;4.686;2022-10-18T15:00:05;102737.91;;;19.86;100.00
44140;BME280;29803;51.048;4.686;2022-10-18T15:02:37;102736.09;;;19.79;100.00
44140;BME280;29803;51.048;4.686;2022-10-18T15:05:19;102742.53;;;19.78;100.00
44140;BME280;29803;51.048;4.686;2022-10-18T15:07:51;102743.16;;;19.65;100.00
44140;BME280;29803;51.048;4.686;2022-10-18T15:10:26;102736.38;;;19.53;100.00
44140;BME280;29803;51.048;4.686;2022-10-18T15:13:00;102732.88;;;19.44;100.00
44140;BME280;29803;51.048;4.686;2022-10-18T15:15:33;102737.53;;;19.35;100.00
44140;BME280;29803;51.048;4.686;2022-10-18T15:18:04;102729.84;;;19.39;100.00
44140;BME280;29803;51.048;4.686;2022-10-18T15:20:36;102729.75;;;19.24;100.00
44140;BME280;29803;51.048;4.686;2022-10-18T15:23:23;102729.28;;;19.12;100.00
44140;BME280;29803;51.048;4.686;2022-10-18T15:26:05;102733.31;;;18.94;100.00
44140;BME280;29803;51.048;4.686;2022-10-18T15:28:42;102725.81;;;18.87;100.00
44140;BME280;29803;51.048;4.686;2022-10-18T15:31:28;102737.09;;;18.76;100.00
44140;BME280;29803;51.048;4.686;2022-10-18T15:34:08;102732.03;;;18.73;100.00
44140;BME280;29803;51.048;4.686;2022-10-18T15:36:40;102730.31;;;18.64;100.00
44140;BME280;29803;51.048;4.686;2022-10-18T15:39:17;102739.50;;;18.55;100.00
44140;BME280;29803;51.048;4.686;2022-10-18T15:41:53;102739.34;;;18.40;100.00
44140;BME280;29803;51.048;4.686;2022-10-18T15:44:48;102744.44;;;18.27;100.00